sensor_id;sensor_type;location;lat;lon;timestamp;temperature;humidity
19172;DHT22;9718;52.200;21.052;2023-03-14T00:01:15;10.00;99.90
19172;DHT22;9718;52.200;21.052;2023-03-14T00:03:43;10.00;99.90
19172;DHT22;9718;52.200;21.052;2023-03-14T00:06:11;9.90;99.90
19172;DHT22;9718;52.200;21.052;2023-03-14T00:08:38;9.80;99.90
19172;DHT22;9718;52.200;21.052;2023-03-14T00:11:15;9.80;99.90
19172;DHT22;9718;52.200;21.052;2023-03-14T00:13:43;9.80;99.90
19172;DHT22;9718;52.200;21.052;2023-03-14T00:16:13;9.60;99.90
19172;DHT22;9718;52.200;21.052;2023-03-14T00:18:40;9.50;99.90
19172;DHT22;9718;52.200;21.052;2023-03-14T00:21:09;9.50;99.90
19172;DHT22;9718;52.200;21.052;2023-03-14T00:23:38;9.50;99.90
19172;DHT22;9718;52.200;21.052;2023-03-14T00:26:08;9.40;99.90
19172;DHT22;9718;52.200;21.052;2023-03-14T00:28:36;9.40;99.90
19172;DHT22;9718;52.200;21.052;2023-03-14T00:31:05;9.40;99.90
19172;DHT22;9718;52.200;21.052;2023-03-14T00:33:33;9.40;99.90
19172;DHT22;9718;52.200;21.052;2023-03-14T00:36:03;9.40;99.90
19172;DHT22;9718;52.200;21.052;2023-03-14T00:38:31;9.40;99.90
19172;DHT22;9718;52.200;21.052;2023-03-14T00:40:59;9.30;99.90
19172;DHT22;9718;52.200;21.052;2023-03-14T00:43:29;9.30;99.90
19172;DHT22;9718;52.200;21.052;2023-03-14T00:45:57;9.20;99.90
19172;DHT22;9718;52.200;21.052;2023-03-14T00:48:25;9.20;99.90
19172;DHT22;9718;52.200;21.052;2023-03-14T00:50:52;9.20;99.90
19172;DHT22;9718;52.200;21.052;2023-03-14T00:53:19;9.20;99.90
19172;DHT22;9718;52.200;21.052;2023-03-14T00:55:47;9.10;99.90
19172;DHT22;9718;52.200;21.052;2023-03-14T00:58:16;9.10;99.90
19172;DHT22;9718;52.200;21.052;2023-03-14T01:00:44;9.00;99.90
19172;DHT22;9718;52.200;21.052;2023-03-14T01:03:11;9.00;99.90
19172;DHT22;9718;52.200;21.052;2023-03-14T01:05:39;8.90;99.90
19172;DHT22;9718;52.200;21.052;2023-03-14T01:08:07;8.90;99.90
19172;DHT22;9718;52.200;21.052;2023-03-14T01:10:38;9.00;99.90
19172;DHT22;9718;52.200;21.052;2023-03-14T01:13:05;8.90;99.90
19172;DHT22;9718;52.200;21.052;2023-03-14T01:15:34;8.90;99.90
19172;DHT22;9718;52.200;21.052;2023-03-14T01:18:01;8.90;99.90
19172;DHT22;9718;52.200;21.052;2023-03-14T01:20:28;8.90;99.90
19172;DHT22;9718;52.200;21.052;2023-03-14T01:22:55;9.00;99.90
19172;DHT22;9718;52.200;21.052;2023-03-14T01:25:22;9.00;99.90
19172;DHT22;9718;52.200;21.052;2023-03-14T01:27:49;9.00;99.90
19172;DHT22;9718;52.200;21.052;2023-03-14T01:30:16;9.00;99.90
19172;DHT22;9718;52.200;21.052;2023-03-14T01:32:43;8.90;99.90
19172;DHT22;9718;52.200;21.052;2023-03-14T01:35:11;8.90;99.90
19172;DHT22;9718;52.200;21.052;2023-03-14T01:37:38;8.90;99.90
19172;DHT22;9718;52.200;21.052;2023-03-14T01:40:05;8.90;99.90
19172;DHT22;9718;52.200;21.052;2023-03-14T01:42:33;8.90;99.90
19172;DHT22;9718;52.200;21.052;2023-03-14T01:45:01;8.90;99.90
19172;DHT22;9718;52.200;21.052;2023-03-14T01:47:28;8.80;99.90
19172;DHT22;9718;52.200;21.052;2023-03-14T01:50:04;8.70;99.90
19172;DHT22;9718;52.200;21.052;2023-03-14T01:52:39;8.70;99.90
19172;DHT22;9718;52.200;21.052;2023-03-14T01:55:15;8.70;99.90
19172;DHT22;9718;52.200;21.052;2023-03-14T01:57:47;8.70;99.90
19172;DHT22;9718;52.200;21.052;2023-03-14T02:00:19;8.60;99.90
19172;DHT22;9718;52.200;21.052;2023-03-14T02:02:53;8.50;99.90
19172;DHT22;9718;52.200;21.052;2023-03-14T02:05:25;8.50;99.90
19172;DHT22;9718;52.200;21.052;2023-03-14T02:07:55;8.50;99.90
19172;DHT22;9718;52.200;21.052;2023-03-14T02:10:31;8.50;99.90
19172;DHT22;9718;52.200;21.052;2023-03-14T02:13:00;8.50;99.90
19172;DHT22;9718;52.200;21.052;2023-03-14T02:15:28;8.50;99.90
19172;DHT22;9718;52.200;21.052;2023-03-14T02:17:57;8.50;99.90
19172;DHT22;9718;52.200;21.052;2023-03-14T02:22:52;8.40;99.90
19172;DHT22;9718;52.200;21.052;2023-03-14T02:27:55;8.30;99.90
19172;DHT22;9718;52.200;21.052;2023-03-14T02:30:26;8.30;99.90
19172;DHT22;9718;52.200;21.052;2023-03-14T02:32:57;8.30;99.90
19172;DHT22;9718;52.200;21.052;2023-03-14T02:35:28;8.30;99.90
19172;DHT22;9718;52.200;21.052;2023-03-14T02:38:07;8.40;99.90
19172;DHT22;9718;52.200;21.052;2023-03-14T02:40:36;8.30;99.90
19172;DHT22;9718;52.200;21.052;2023-03-14T02:43:03;8.40;99.90
19172;DHT22;9718;52.200;21.052;2023-03-14T02:45:39;8.40;99.90
19172;DHT22;9718;52.200;21.052;2023-03-14T02:48:19;8.30;99.90
19172;DHT22;9718;52.200;21.052;2023-03-14T02:50:49;8.20;99.90
19172;DHT22;9718;52.200;21.052;2023-03-14T02:53:20;8.00;99.90
19172;DHT22;9718;52.200;21.052;2023-03-14T02:55:49;8.00;99.90
19172;DHT22;9718;52.200;21.052;2023-03-14T02:58:17;8.00;99.90
19172;DHT22;9718;52.200;21.052;2023-03-14T03:00:44;8.00;99.90
19172;DHT22;9718;52.200;21.052;2023-03-14T03:03:11;8.00;99.90
19172;DHT22;9718;52.200;21.052;2023-03-14T03:05:38;8.00;99.90
19172;DHT22;9718;52.200;21.052;2023-03-14T03:08:06;8.00;99.90
19172;DHT22;9718;52.200;21.052;2023-03-14T03:10:33;8.00;99.90
19172;DHT22;9718;52.200;21.052;2023-03-14T03:13:00;8.10;99.90
19172;DHT22;9718;52.200;21.052;2023-03-14T03:15:28;8.10;99.90
19172;DHT22;9718;52.200;21.052;2023-03-14T03:17:55;8.10;99.90
19172;DHT22;9718;52.200;21.052;2023-03-14T03:20:22;8.20;99.90
19172;DHT22;9718;52.200;21.052;2023-03-14T03:22:49;8.10;99.90
19172;DHT22;9718;52.200;21.052;2023-03-14T03:25:17;7.90;99.90
19172;DHT22;9718;52.200;21.052;2023-03-14T03:27:44;7.80;99.90
19172;DHT22;9718;52.200;21.052;2023-03-14T03:30:11;7.60;99.90
19172;DHT22;9718;52.200;21.052;2023-03-14T03:32:38;7.50;99.90
19172;DHT22;9718;52.200;21.052;2023-03-14T03:35:06;7.40;99.90
19172;DHT22;9718;52.200;21.052;2023-03-14T03:37:34;7.40;99.90
19172;DHT22;9718;52.200;21.052;2023-03-14T03:40:02;7.40;99.90
19172;DHT22;9718;52.200;21.052;2023-03-14T03:42:33;7.40;99.90
19172;DHT22;9718;52.200;21.052;2023-03-14T03:45:01;7.40;99.90
19172;DHT22;9718;52.200;21.052;2023-03-14T03:47:30;7.30;99.90
19172;DHT22;9718;52.200;21.052;2023-03-14T03:49:58;7.20;99.90
19172;DHT22;9718;52.200;21.052;2023-03-14T03:52:25;7.10;99.90
19172;DHT22;9718;52.200;21.052;2023-03-14T03:54:52;7.00;99.90
19172;DHT22;9718;52.200;21.052;2023-03-14T03:57:20;6.90;99.90
19172;DHT22;9718;52.200;21.052;2023-03-14T03:59:47;6.70;99.90
19172;DHT22;9718;52.200;21.052;2023-03-14T04:02:14;6.60;99.90
19172;DHT22;9718;52.200;21.052;2023-03-14T04:04:41;6.50;99.90
19172;DHT22;9718;52.200;21.052;2023-03-14T04:07:09;6.50;99.90
19172;DHT22;9718;52.200;21.052;2023-03-14T04:09:37;6.50;99.90
19172;DHT22;9718;52.200;21.052;2023-03-14T04:12:05;6.40;99.90
19172;DHT22;9718;52.200;21.052;2023-03-14T04:14:32;6.30;99.90
19172;DHT22;9718;52.200;21.052;2023-03-14T04:16:59;6.20;99.90
19172;DHT22;9718;52.200;21.052;2023-03-14T04:19:27;6.10;99.90
19172;DHT22;9718;52.200;21.052;2023-03-14T04:21:54;5.90;99.90
19172;DHT22;9718;52.200;21.052;2023-03-14T04:24:21;5.80;99.90
19172;DHT22;9718;52.200;21.052;2023-03-14T04:26:48;5.70;99.90
19172;DHT22;9718;52.200;21.052;2023-03-14T04:29:16;5.60;99.90
19172;DHT22;9718;52.200;21.052;2023-03-14T04:31:43;5.50;99.90
19172;DHT22;9718;52.200;21.052;2023-03-14T04:34:10;5.50;99.90
19172;DHT22;9718;52.200;21.052;2023-03-14T04:36:37;5.70;99.90
19172;DHT22;9718;52.200;21.052;2023-03-14T04:39:06;5.90;99.90
19172;DHT22;9718;52.200;21.052;2023-03-14T04:41:33;6.10;99.90
19172;DHT22;9718;52.200;21.052;2023-03-14T04:44:00;6.30;99.90
19172;DHT22;9718;52.200;21.052;2023-03-14T04:46:27;6.40;99.90
19172;DHT22;9718;52.200;21.052;2023-03-14T04:48:54;6.60;99.90
19172;DHT22;9718;52.200;21.052;2023-03-14T04:51:23;6.80;99.90
19172;DHT22;9718;52.200;21.052;2023-03-14T04:53:54;6.90;99.90
19172;DHT22;9718;52.200;21.052;2023-03-14T04:56:21;7.00;99.90
19172;DHT22;9718;52.200;21.052;2023-03-14T04:58:49;7.10;99.90
19172;DHT22;9718;52.200;21.052;2023-03-14T05:01:16;7.10;99.90
19172;DHT22;9718;52.200;21.052;2023-03-14T05:03:44;7.20;99.90
19172;DHT22;9718;52.200;21.052;2023-03-14T05:06:11;7.20;99.90
19172;DHT22;9718;52.200;21.052;2023-03-14T05:08:39;7.30;99.90
19172;DHT22;9718;52.200;21.052;2023-03-14T05:11:06;7.30;99.90
19172;DHT22;9718;52.200;21.052;2023-03-14T05:13:33;7.40;99.90
19172;DHT22;9718;52.200;21.052;2023-03-14T05:16:08;7.50;99.90
19172;DHT22;9718;52.200;21.052;2023-03-14T05:18:36;7.50;99.90
19172;DHT22;9718;52.200;21.052;2023-03-14T05:21:04;7.60;99.90
19172;DHT22;9718;52.200;21.052;2023-03-14T05:23:31;7.60;99.90
19172;DHT22;9718;52.200;21.052;2023-03-14T05:25:58;7.60;99.90
19172;DHT22;9718;52.200;21.052;2023-03-14T05:28:26;7.60;99.90
19172;DHT22;9718;52.200;21.052;2023-03-14T05:30:53;7.60;99.90
19172;DHT22;9718;52.200;21.052;2023-03-14T05:33:20;7.50;99.90
19172;DHT22;9718;52.200;21.052;2023-03-14T05:35:47;7.50;99.90
19172;DHT22;9718;52.200;21.052;2023-03-14T05:38:15;7.50;99.90
19172;DHT22;9718;52.200;21.052;2023-03-14T05:40:42;7.50;99.90
19172;DHT22;9718;52.200;21.052;2023-03-14T05:43:09;7.50;99.90
19172;DHT22;9718;52.200;21.052;2023-03-14T05:45:36;7.50;99.90
19172;DHT22;9718;52.200;21.052;2023-03-14T05:48:03;7.50;99.90
19172;DHT22;9718;52.200;21.052;2023-03-14T05:50:30;7.50;99.90
19172;DHT22;9718;52.200;21.052;2023-03-14T05:52:58;7.60;99.90
19172;DHT22;9718;52.200;21.052;2023-03-14T05:55:25;7.60;99.90
19172;DHT22;9718;52.200;21.052;2023-03-14T05:57:53;7.70;99.90
19172;DHT22;9718;52.200;21.052;2023-03-14T06:00:21;7.80;99.90
19172;DHT22;9718;52.200;21.052;2023-03-14T06:02:48;8.10;99.90
19172;DHT22;9718;52.200;21.052;2023-03-14T06:05:16;8.50;99.90
19172;DHT22;9718;52.200;21.052;2023-03-14T06:07:43;8.70;99.90
19172;DHT22;9718;52.200;21.052;2023-03-14T06:10:10;9.20;99.90
19172;DHT22;9718;52.200;21.052;2023-03-14T06:12:38;10.00;99.90
19172;DHT22;9718;52.200;21.052;2023-03-14T06:15:06;10.60;99.90
19172;DHT22;9718;52.200;21.052;2023-03-14T06:17:33;11.30;99.90
19172;DHT22;9718;52.200;21.052;2023-03-14T06:20:00;11.70;99.90
19172;DHT22;9718;52.200;21.052;2023-03-14T06:22:28;11.90;99.90
19172;DHT22;9718;52.200;21.052;2023-03-14T06:24:55;11.60;99.90
19172;DHT22;9718;52.200;21.052;2023-03-14T06:27:22;11.10;99.90
19172;DHT22;9718;52.200;21.052;2023-03-14T06:29:49;10.70;99.90
19172;DHT22;9718;52.200;21.052;2023-03-14T06:32:16;10.40;99.90
19172;DHT22;9718;52.200;21.052;2023-03-14T06:34:44;10.10;99.90
19172;DHT22;9718;52.200;21.052;2023-03-14T06:37:12;9.80;99.90
19172;DHT22;9718;52.200;21.052;2023-03-14T06:39:39;9.60;99.90
19172;DHT22;9718;52.200;21.052;2023-03-14T06:42:06;9.70;99.90
19172;DHT22;9718;52.200;21.052;2023-03-14T06:44:33;9.80;99.90
19172;DHT22;9718;52.200;21.052;2023-03-14T06:47:01;10.10;99.90
19172;DHT22;9718;52.200;21.052;2023-03-14T06:49:28;10.20;99.90
19172;DHT22;9718;52.200;21.052;2023-03-14T06:51:55;10.20;99.90
19172;DHT22;9718;52.200;21.052;2023-03-14T06:54:23;10.10;99.90
19172;DHT22;9718;52.200;21.052;2023-03-14T06:56:50;10.20;99.90
19172;DHT22;9718;52.200;21.052;2023-03-14T06:59:17;10.50;99.90
19172;DHT22;9718;52.200;21.052;2023-03-14T07:01:44;11.00;99.90
19172;DHT22;9718;52.200;21.052;2023-03-14T07:04:11;11.30;99.90
19172;DHT22;9718;52.200;21.052;2023-03-14T07:06:39;11.50;99.90
19172;DHT22;9718;52.200;21.052;2023-03-14T07:09:06;11.80;99.90
19172;DHT22;9718;52.200;21.052;2023-03-14T07:11:33;12.20;99.90
19172;DHT22;9718;52.200;21.052;2023-03-14T07:14:01;12.80;99.90
19172;DHT22;9718;52.200;21.052;2023-03-14T07:16:28;13.70;99.90
19172;DHT22;9718;52.200;21.052;2023-03-14T07:18:58;13.90;99.90
19172;DHT22;9718;52.200;21.052;2023-03-14T07:21:25;13.90;99.90
19172;DHT22;9718;52.200;21.052;2023-03-14T07:23:53;13.30;99.90
19172;DHT22;9718;52.200;21.052;2023-03-14T07:26:20;12.90;99.90
19172;DHT22;9718;52.200;21.052;2023-03-14T07:28:47;12.40;99.90
19172;DHT22;9718;52.200;21.052;2023-03-14T07:31:14;12.30;99.90
19172;DHT22;9718;52.200;21.052;2023-03-14T07:33:41;12.30;99.90
19172;DHT22;9718;52.200;21.052;2023-03-14T07:36:09;12.20;99.90
19172;DHT22;9718;52.200;21.052;2023-03-14T07:38:36;12.30;99.90
19172;DHT22;9718;52.200;21.052;2023-03-14T07:41:05;12.60;99.90
19172;DHT22;9718;52.200;21.052;2023-03-14T07:43:33;12.60;99.90
19172;DHT22;9718;52.200;21.052;2023-03-14T07:46:01;13.00;99.90
19172;DHT22;9718;52.200;21.052;2023-03-14T07:48:28;13.40;99.90
19172;DHT22;9718;52.200;21.052;2023-03-14T07:50:56;13.70;99.90
19172;DHT22;9718;52.200;21.052;2023-03-14T07:53:24;14.00;99.90
19172;DHT22;9718;52.200;21.052;2023-03-14T07:55:53;14.20;99.90
19172;DHT22;9718;52.200;21.052;2023-03-14T07:58:20;14.20;99.90
19172;DHT22;9718;52.200;21.052;2023-03-14T08:00:50;14.50;99.90
19172;DHT22;9718;52.200;21.052;2023-03-14T08:03:17;14.40;99.90
19172;DHT22;9718;52.200;21.052;2023-03-14T08:05:49;14.40;99.90
19172;DHT22;9718;52.200;21.052;2023-03-14T08:08:17;14.00;99.90
19172;DHT22;9718;52.200;21.052;2023-03-14T08:10:45;14.30;99.90
19172;DHT22;9718;52.200;21.052;2023-03-14T08:13:13;14.70;99.90
19172;DHT22;9718;52.200;21.052;2023-03-14T08:15:41;14.60;99.90
19172;DHT22;9718;52.200;21.052;2023-03-14T08:18:08;14.10;99.90
19172;DHT22;9718;52.200;21.052;2023-03-14T08:20:36;14.10;99.90
19172;DHT22;9718;52.200;21.052;2023-03-14T08:23:03;14.00;99.90
19172;DHT22;9718;52.200;21.052;2023-03-14T08:25:30;13.90;99.90
19172;DHT22;9718;52.200;21.052;2023-03-14T08:27:57;13.70;99.90
19172;DHT22;9718;52.200;21.052;2023-03-14T08:30:25;13.50;99.90
19172;DHT22;9718;52.200;21.052;2023-03-14T08:32:53;13.50;99.90
19172;DHT22;9718;52.200;21.052;2023-03-14T08:35:20;13.70;99.90
19172;DHT22;9718;52.200;21.052;2023-03-14T08:37:47;14.10;99.90
19172;DHT22;9718;52.200;21.052;2023-03-14T08:40:15;14.20;99.90
19172;DHT22;9718;52.200;21.052;2023-03-14T08:42:44;14.40;99.90
19172;DHT22;9718;52.200;21.052;2023-03-14T08:45:13;15.00;99.90
19172;DHT22;9718;52.200;21.052;2023-03-14T08:47:41;15.00;99.90
19172;DHT22;9718;52.200;21.052;2023-03-14T08:50:09;15.00;99.90
19172;DHT22;9718;52.200;21.052;2023-03-14T08:52:39;15.40;99.90
19172;DHT22;9718;52.200;21.052;2023-03-14T08:55:09;15.30;99.90
19172;DHT22;9718;52.200;21.052;2023-03-14T08:57:36;15.90;99.90
19172;DHT22;9718;52.200;21.052;2023-03-14T09:00:04;15.80;99.90
19172;DHT22;9718;52.200;21.052;2023-03-14T09:02:37;15.40;99.90
19172;DHT22;9718;52.200;21.052;2023-03-14T09:05:06;15.50;99.90
19172;DHT22;9718;52.200;21.052;2023-03-14T09:07:33;16.00;99.90
19172;DHT22;9718;52.200;21.052;2023-03-14T09:10:00;16.10;99.90
19172;DHT22;9718;52.200;21.052;2023-03-14T09:12:27;15.60;99.90
19172;DHT22;9718;52.200;21.052;2023-03-14T09:14:55;15.40;99.90
19172;DHT22;9718;52.200;21.052;2023-03-14T09:17:22;15.50;99.90
19172;DHT22;9718;52.200;21.052;2023-03-14T09:19:49;15.50;99.90
19172;DHT22;9718;52.200;21.052;2023-03-14T09:22:16;16.00;99.90
19172;DHT22;9718;52.200;21.052;2023-03-14T09:24:43;16.80;99.90
19172;DHT22;9718;52.200;21.052;2023-03-14T09:27:11;17.20;99.90
19172;DHT22;9718;52.200;21.052;2023-03-14T09:29:38;16.50;99.90
19172;DHT22;9718;52.200;21.052;2023-03-14T09:32:05;15.90;99.90
19172;DHT22;9718;52.200;21.052;2023-03-14T09:34:32;15.60;99.90
19172;DHT22;9718;52.200;21.052;2023-03-14T09:37:02;15.80;99.90
19172;DHT22;9718;52.200;21.052;2023-03-14T09:39:29;16.40;99.90
19172;DHT22;9718;52.200;21.052;2023-03-14T09:41:58;16.60;99.90
19172;DHT22;9718;52.200;21.052;2023-03-14T09:44:31;16.50;99.90
19172;DHT22;9718;52.200;21.052;2023-03-14T09:47:09;16.40;99.90
19172;DHT22;9718;52.200;21.052;2023-03-14T09:49:42;16.50;99.90
19172;DHT22;9718;52.200;21.052;2023-03-14T09:52:15;16.50;99.90
19172;DHT22;9718;52.200;21.052;2023-03-14T09:54:49;16.50;99.90
19172;DHT22;9718;52.200;21.052;2023-03-14T09:57:20;16.10;99.90
19172;DHT22;9718;52.200;21.052;2023-03-14T09:59:49;15.90;99.90
19172;DHT22;9718;52.200;21.052;2023-03-14T10:04:50;16.70;99.90
19172;DHT22;9718;52.200;21.052;2023-03-14T10:07:25;17.10;99.90
19172;DHT22;9718;52.200;21.052;2023-03-14T10:09:53;17.30;99.90
19172;DHT22;9718;52.200;21.052;2023-03-14T10:12:33;16.60;99.90
19172;DHT22;9718;52.200;21.052;2023-03-14T10:15:07;16.60;99.90
19172;DHT22;9718;52.200;21.052;2023-03-14T10:17:40;16.50;99.90
19172;DHT22;9718;52.200;21.052;2023-03-14T10:20:32;16.20;99.90
19172;DHT22;9718;52.200;21.052;2023-03-14T10:23:02;16.00;99.90
19172;DHT22;9718;52.200;21.052;2023-03-14T10:25:35;15.70;99.90
19172;DHT22;9718;52.200;21.052;2023-03-14T10:28:04;15.60;99.90
19172;DHT22;9718;52.200;21.052;2023-03-14T10:30:44;15.70;99.90
19172;DHT22;9718;52.200;21.052;2023-03-14T10:33:21;15.90;99.90
19172;DHT22;9718;52.200;21.052;2023-03-14T10:36:00;16.40;99.90
19172;DHT22;9718;52.200;21.052;2023-03-14T10:38:33;16.30;99.90
19172;DHT22;9718;52.200;21.052;2023-03-14T10:41:03;16.50;99.90
19172;DHT22;9718;52.200;21.052;2023-03-14T10:43:41;16.50;99.90
19172;DHT22;9718;52.200;21.052;2023-03-14T10:46:19;16.90;99.90
19172;DHT22;9718;52.200;21.052;2023-03-14T10:48:47;17.20;99.90
19172;DHT22;9718;52.200;21.052;2023-03-14T10:51:19;17.20;99.90
19172;DHT22;9718;52.200;21.052;2023-03-14T10:54:14;16.90;99.90
19172;DHT22;9718;52.200;21.052;2023-03-14T10:56:59;16.70;99.90
19172;DHT22;9718;52.200;21.052;2023-03-14T10:59:32;16.80;99.90
19172;DHT22;9718;52.200;21.052;2023-03-14T11:04:46;16.40;99.90
19172;DHT22;9718;52.200;21.052;2023-03-14T11:07:38;16.10;99.90
19172;DHT22;9718;52.200;21.052;2023-03-14T11:10:34;16.20;99.90
19172;DHT22;9718;52.200;21.052;2023-03-14T11:13:21;16.30;99.90
19172;DHT22;9718;52.200;21.052;2023-03-14T11:16:06;16.10;99.90
19172;DHT22;9718;52.200;21.052;2023-03-14T11:19:00;15.70;99.90
19172;DHT22;9718;52.200;21.052;2023-03-14T11:21:36;15.50;99.90
19172;DHT22;9718;52.200;21.052;2023-03-14T11:27:03;15.70;99.90
19172;DHT22;9718;52.200;21.052;2023-03-14T11:32:02;16.00;99.90
19172;DHT22;9718;52.200;21.052;2023-03-14T11:34:40;16.00;99.90
19172;DHT22;9718;52.200;21.052;2023-03-14T11:37:29;15.80;99.90
19172;DHT22;9718;52.200;21.052;2023-03-14T11:40:10;15.70;99.90
19172;DHT22;9718;52.200;21.052;2023-03-14T11:42:43;15.70;99.90
19172;DHT22;9718;52.200;21.052;2023-03-14T11:45:17;15.70;99.90
19172;DHT22;9718;52.200;21.052;2023-03-14T11:50:30;15.90;99.90
19172;DHT22;9718;52.200;21.052;2023-03-14T11:55:53;15.00;99.90
19172;DHT22;9718;52.200;21.052;2023-03-14T11:58:29;14.70;99.90
19172;DHT22;9718;52.200;21.052;2023-03-14T12:01:04;14.60;99.90
19172;DHT22;9718;52.200;21.052;2023-03-14T12:03:46;14.50;99.90
19172;DHT22;9718;52.200;21.052;2023-03-14T12:06:20;14.60;99.90
19172;DHT22;9718;52.200;21.052;2023-03-14T12:08:59;14.70;99.90
19172;DHT22;9718;52.200;21.052;2023-03-14T12:16:48;15.60;99.90
19172;DHT22;9718;52.200;21.052;2023-03-14T12:24:28;15.60;99.90
19172;DHT22;9718;52.200;21.052;2023-03-14T12:27:01;15.50;99.90
19172;DHT22;9718;52.200;21.052;2023-03-14T12:29:28;15.30;99.90
19172;DHT22;9718;52.200;21.052;2023-03-14T12:34:32;15.10;99.90
19172;DHT22;9718;52.200;21.052;2023-03-14T12:40:20;14.90;99.90
19172;DHT22;9718;52.200;21.052;2023-03-14T12:43:01;15.00;99.90
19172;DHT22;9718;52.200;21.052;2023-03-14T12:45:32;14.70;99.90
19172;DHT22;9718;52.200;21.052;2023-03-14T12:48:21;14.70;99.90
19172;DHT22;9718;52.200;21.052;2023-03-14T12:51:02;14.80;99.90
19172;DHT22;9718;52.200;21.052;2023-03-14T12:53:42;14.60;99.90
19172;DHT22;9718;52.200;21.052;2023-03-14T12:56:26;14.60;99.90
19172;DHT22;9718;52.200;21.052;2023-03-14T13:01:33;14.40;99.90
19172;DHT22;9718;52.200;21.052;2023-03-14T13:04:08;14.30;99.90
19172;DHT22;9718;52.200;21.052;2023-03-14T13:07:03;14.20;99.90
19172;DHT22;9718;52.200;21.052;2023-03-14T13:12:03;14.00;99.90
19172;DHT22;9718;52.200;21.052;2023-03-14T13:14:31;13.90;99.90
19172;DHT22;9718;52.200;21.052;2023-03-14T13:17:02;13.40;99.90
19172;DHT22;9718;52.200;21.052;2023-03-14T13:19:55;13.10;99.90
19172;DHT22;9718;52.200;21.052;2023-03-14T13:22:29;13.00;99.90
19172;DHT22;9718;52.200;21.052;2023-03-14T13:25:07;12.70;99.90
19172;DHT22;9718;52.200;21.052;2023-03-14T13:27:36;12.60;99.90
19172;DHT22;9718;52.200;21.052;2023-03-14T13:30:29;12.40;99.90
19172;DHT22;9718;52.200;21.052;2023-03-14T13:33:04;12.30;99.90
19172;DHT22;9718;52.200;21.052;2023-03-14T13:35:41;12.20;99.90
19172;DHT22;9718;52.200;21.052;2023-03-14T13:38:21;12.20;99.90
19172;DHT22;9718;52.200;21.052;2023-03-14T13:40:50;12.20;99.90
19172;DHT22;9718;52.200;21.052;2023-03-14T13:43:23;12.10;99.90
19172;DHT22;9718;52.200;21.052;2023-03-14T13:48:43;12.00;99.90
19172;DHT22;9718;52.200;21.052;2023-03-14T13:51:13;12.10;99.90
19172;DHT22;9718;52.200;21.052;2023-03-14T13:56:17;11.80;99.90
19172;DHT22;9718;52.200;21.052;2023-03-14T13:58:48;11.70;99.90
19172;DHT22;9718;52.200;21.052;2023-03-14T14:01:30;11.60;99.90
19172;DHT22;9718;52.200;21.052;2023-03-14T14:04:07;11.60;99.90
19172;DHT22;9718;52.200;21.052;2023-03-14T14:06:39;11.50;99.90
19172;DHT22;9718;52.200;21.052;2023-03-14T14:09:16;11.50;99.90
19172;DHT22;9718;52.200;21.052;2023-03-14T14:15:21;11.50;99.90
19172;DHT22;9718;52.200;21.052;2023-03-14T14:17:56;11.40;99.90
19172;DHT22;9718;52.200;21.052;2023-03-14T14:23:02;11.30;99.90
19172;DHT22;9718;52.200;21.052;2023-03-14T14:25:32;11.30;99.90
19172;DHT22;9718;52.200;21.052;2023-03-14T14:31:15;11.20;99.90
19172;DHT22;9718;52.200;21.052;2023-03-14T14:33:45;11.20;99.90
19172;DHT22;9718;52.200;21.052;2023-03-14T14:36:31;11.10;99.90
19172;DHT22;9718;52.200;21.052;2023-03-14T14:39:04;11.00;99.90
19172;DHT22;9718;52.200;21.052;2023-03-14T14:41:39;11.00;99.90
19172;DHT22;9718;52.200;21.052;2023-03-14T14:44:07;11.00;99.90
19172;DHT22;9718;52.200;21.052;2023-03-14T14:46:36;11.00;99.90
19172;DHT22;9718;52.200;21.052;2023-03-14T14:49:18;11.00;99.90
19172;DHT22;9718;52.200;21.052;2023-03-14T14:51:50;11.00;99.90
19172;DHT22;9718;52.200;21.052;2023-03-14T14:54:42;11.00;99.90
19172;DHT22;9718;52.200;21.052;2023-03-14T14:57:25;11.10;99.90
19172;DHT22;9718;52.200;21.052;2023-03-14T15:00:24;11.10;99.90
19172;DHT22;9718;52.200;21.052;2023-03-14T15:02:55;11.10;99.90
19172;DHT22;9718;52.200;21.052;2023-03-14T15:05:27;11.00;99.90
19172;DHT22;9718;52.200;21.052;2023-03-14T15:07:57;11.00;99.90
19172;DHT22;9718;52.200;21.052;2023-03-14T15:10:25;11.00;99.90
19172;DHT22;9718;52.200;21.052;2023-03-14T15:12:53;11.00;99.90
19172;DHT22;9718;52.200;21.052;2023-03-14T15:15:20;10.90;99.90
19172;DHT22;9718;52.200;21.052;2023-03-14T15:17:48;10.80;99.90
19172;DHT22;9718;52.200;21.052;2023-03-14T15:20:17;10.80;99.90
19172;DHT22;9718;52.200;21.052;2023-03-14T15:22:46;10.80;99.90
19172;DHT22;9718;52.200;21.052;2023-03-14T15:25:13;10.80;99.90
19172;DHT22;9718;52.200;21.052;2023-03-14T15:28:00;10.80;99.90
19172;DHT22;9718;52.200;21.052;2023-03-14T15:30:27;10.80;99.90
19172;DHT22;9718;52.200;21.052;2023-03-14T15:32:54;10.80;99.90
19172;DHT22;9718;52.200;21.052;2023-03-14T15:35:21;10.80;99.90
19172;DHT22;9718;52.200;21.052;2023-03-14T15:37:49;10.70;99.90
19172;DHT22;9718;52.200;21.052;2023-03-14T15:40:16;10.70;99.90
19172;DHT22;9718;52.200;21.052;2023-03-14T15:42:43;10.70;99.90
19172;DHT22;9718;52.200;21.052;2023-03-14T15:45:10;10.70;99.90
19172;DHT22;9718;52.200;21.052;2023-03-14T15:47:38;10.70;99.90
19172;DHT22;9718;52.200;21.052;2023-03-14T15:50:05;10.70;99.90
19172;DHT22;9718;52.200;21.052;2023-03-14T15:52:36;10.70;99.90
19172;DHT22;9718;52.200;21.052;2023-03-14T15:55:04;10.70;99.90
19172;DHT22;9718;52.200;21.052;2023-03-14T15:57:31;10.70;99.90
19172;DHT22;9718;52.200;21.052;2023-03-14T15:59:58;10.70;99.90
19172;DHT22;9718;52.200;21.052;2023-03-14T16:02:26;10.70;99.90
19172;DHT22;9718;52.200;21.052;2023-03-14T16:04:53;10.70;99.90
19172;DHT22;9718;52.200;21.052;2023-03-14T16:07:20;10.60;99.90
19172;DHT22;9718;52.200;21.052;2023-03-14T16:09:47;10.60;99.90
19172;DHT22;9718;52.200;21.052;2023-03-14T16:12:15;10.60;99.90
19172;DHT22;9718;52.200;21.052;2023-03-14T16:14:42;10.70;99.90
19172;DHT22;9718;52.200;21.052;2023-03-14T16:17:10;10.70;99.90
19172;DHT22;9718;52.200;21.052;2023-03-14T16:19:40;10.60;99.90
19172;DHT22;9718;52.200;21.052;2023-03-14T16:22:07;10.60;99.90
19172;DHT22;9718;52.200;21.052;2023-03-14T16:24:34;10.70;99.90
19172;DHT22;9718;52.200;21.052;2023-03-14T16:27:01;10.70;99.90
19172;DHT22;9718;52.200;21.052;2023-03-14T16:29:29;10.70;99.90
19172;DHT22;9718;52.200;21.052;2023-03-14T16:31:57;10.70;99.90
19172;DHT22;9718;52.200;21.052;2023-03-14T16:34:24;10.70;99.90
19172;DHT22;9718;52.200;21.052;2023-03-14T16:36:52;10.60;99.90
19172;DHT22;9718;52.200;21.052;2023-03-14T16:39:19;10.70;99.90
19172;DHT22;9718;52.200;21.052;2023-03-14T16:41:46;10.70;99.90
19172;DHT22;9718;52.200;21.052;2023-03-14T16:44:13;10.70;99.90
19172;DHT22;9718;52.200;21.052;2023-03-14T16:46:40;10.60;99.90
19172;DHT22;9718;52.200;21.052;2023-03-14T16:49:08;10.70;99.90
19172;DHT22;9718;52.200;21.052;2023-03-14T16:51:35;10.80;99.90
19172;DHT22;9718;52.200;21.052;2023-03-14T16:54:02;10.80;99.90